Time;durP1;ratioP1;P1;durP2;ratioP2;P2;SDS_P1;SDS_P2;PMS_P1;PMS_P2;Temp;Humidity;BMP_temperature;BMP_pressure;BME280_temperature;BME280_humidity;BME280_pressure;Samples;Min_cycle;Max_cycle;Signal;HPM_P1;HPM_P2
2023/03/06 00:05:46;;;;;;;12.6;7.6;;;;;;;0.8;85.5;97840;;;;
2023/03/06 00:15:46;;;;;;;12.6;7.6;;;;;;;0.7;85.3;97850;;;;
2023/03/06 00:26:46;;;;;;;14.6;7.1;;;;;;;0.7;85.3;97850;;;;
2023/03/06 00:37:46;;;;;;;14.6;7.1;;;;;;;0.6;85.7;97850;;;;
2023/03/06 00:47:46;;;;;;;14.6;7.1;;;;;;;0.7;85.7;97840;;;;
2023/03/06 00:57:46;;;;;;;15.8;8.4;;;;;;;0.7;85.5;97850;;;;
2023/03/06 01:26:09;;;;;;;18.4;12.2;;;;;;;0.3;86.7;97840;;;;
2023/03/06 01:36:09;;;;;;;18.4;12.2;;;;;;;0.4;86.7;97840;;;;
2023/03/06 01:47:09;;;;;;;20.4;9.5;;;;;;;0.4;86.3;97830;;;;
2023/03/06 01:58:09;;;;;;;20.4;9.5;;;;;;;0.2;86.4;97820;;;;
2023/03/06 02:09:09;;;;;;;20.4;9.5;;;;;;;0.2;86.7;97820;;;;
2023/03/06 02:19:09;;;;;;;16.3;7.7;;;;;;;0.2;86.5;97810;;;;
2023/03/06 02:29:09;;;;;;;16.3;7.7;;;;;;;0.2;86.4;97810;;;;
2023/03/06 02:40:11;;;;;;;16.3;7.7;;;;;;;0.1;86.1;97800;;;;
2023/03/06 02:50:09;;;;;;;14.8;8.7;;;;;;;0;85.8;97800;;;;
2023/03/06 03:00:09;;;;;;;14.8;8.7;;;;;;;0;85.9;97790;;;;
2023/03/06 03:11:09;;;;;;;14.8;8.7;;;;;;;-0.1;86;97780;;;;
2023/03/06 03:22:09;;;;;;;17;10;;;;;;;0;86.3;97790;;;;
2023/03/06 03:32:09;;;;;;;17;10;;;;;;;0.1;86.7;97780;;;;
2023/03/06 03:42:09;;;;;;;17;10;;;;;;;0.2;86.8;97770;;;;
2023/03/06 03:52:09;;;;;;;17.7;9.4;;;;;;;0.2;87.1;97760;;;;
2023/03/06 04:02:09;;;;;;;17.7;9.4;;;;;;;0.4;87.1;97760;;;;
2023/03/06 04:12:09;;;;;;;17.7;9.4;;;;;;;0.4;86.9;97740;;;;
2023/03/06 04:23:09;;;;;;;19.3;10.3;;;;;;;0.6;86.8;97750;;;;
2023/03/06 04:33:09;;;;;;;19.3;10.3;;;;;;;0.5;86.6;97740;;;;
2023/03/06 04:43:09;;;;;;;19.3;10.3;;;;;;;0.6;86.6;97740;;;;
2023/03/06 04:54:09;;;;;;;16.5;9.6;;;;;;;0.7;86.5;97740;;;;
2023/03/06 05:05:09;;;;;;;16.5;9.6;;;;;;;0.6;86.1;97730;;;;
2023/03/06 05:16:09;;;;;;;17.7;8.5;;;;;;;0.6;86;97730;;;;
2023/03/06 05:26:09;;;;;;;17.7;8.5;;;;;;;0.6;85.7;97740;;;;
2023/03/06 05:36:09;;;;;;;17.7;8.5;;;;;;;0.8;85.4;97740;;;;
2023/03/06 05:47:10;;;;;;;18.2;9.5;;;;;;;0.9;85;97740;;;;
2023/03/06 05:57:09;;;;;;;18.2;9.5;;;;;;;1;84.4;97740;;;;
2023/03/06 06:07:09;;;;;;;18.2;9.5;;;;;;;0.8;83.3;97730;;;;
2023/03/06 06:18:09;;;;;;;19.6;11.4;;;;;;;0.8;83.4;97730;;;;
2023/03/06 06:28:11;;;;;;;19.6;11.4;;;;;;;1.1;82.9;97740;;;;
2023/03/06 06:39:09;;;;;;;19.6;11.4;;;;;;;1.6;82.6;97740;;;;
2023/03/06 06:49:09;;;;;;;17.1;9.1;;;;;;;1.8;81.6;97730;;;;
2023/03/06 06:59:09;;;;;;;17.1;9.1;;;;;;;2.1;80.2;97730;;;;
2023/03/06 07:10:09;;;;;;;17.1;9.1;;;;;;;2.5;77.2;97710;;;;
2023/03/06 07:21:10;;;;;;;15;9;;;;;;;3;75.2;97710;;;;
2023/03/06 07:31:10;;;;;;;15;9;;;;;;;3.3;74.5;97730;;;;
2023/03/06 08:03:19;;;;;;;14.7;7.9;;;;;;;4.3;70.6;97750;;;;
2023/03/06 08:14:18;;;;;;;14.7;7.9;;;;;;;4.4;69.9;97740;;;;
2023/03/06 08:25:18;;;;;;;16.3;10.2;;;;;;;5;69.4;97730;;;;
2023/03/06 08:35:18;;;;;;;16.3;10.2;;;;;;;5.5;68.3;97730;;;;
2023/03/06 08:46:18;;;;;;;16.3;10.2;;;;;;;5.4;65;97730;;;;
2023/03/06 08:56:18;;;;;;;11.4;8.9;;;;;;;5.4;64.8;97730;;;;
2023/03/06 09:06:18;;;;;;;11.4;8.9;;;;;;;5.4;62.5;97740;;;;
2023/03/06 09:16:18;;;;;;;11.4;8.9;;;;;;;5.6;61.9;97740;;;;
2023/03/06 09:26:18;;;;;;;9.7;5.5;;;;;;;5.7;61.8;97730;;;;
2023/03/06 09:36:18;;;;;;;9.7;5.5;;;;;;;5.6;59.1;97730;;;;
2023/03/06 09:47:18;;;;;;;9.7;5.5;;;;;;;5.9;58.1;97730;;;;
2023/03/06 10:01:29;;;;;;;;;;;;;;;;;;;;;
2023/03/06 10:11:29;;;;;;;5.8;3.4;;;;;;;6.3;58;97720;;;;
2023/03/06 10:21:30;;;;;;;5.8;3.4;;;;;;;6.1;56.3;97710;;;;
2023/03/06 10:31:29;;;;;;;7.2;4.5;;;;;;;6.4;58.3;97690;;;;
2023/03/06 10:42:29;;;;;;;7.2;4.5;;;;;;;6.4;56.6;97680;;;;
2023/03/06 10:52:29;;;;;;;11.3;4.8;;;;;;;6.7;56.3;97660;;;;
2023/03/06 11:03:29;;;;;;;11.3;4.8;;;;;;;6.8;57.4;97650;;;;
2023/03/06 11:13:29;;;;;;;11.3;4.8;;;;;;;7;54.9;97650;;;;
2023/03/06 11:23:29;;;;;;;10;6.7;;;;;;;7.2;54.1;97630;;;;
2023/03/06 11:34:29;;;;;;;10;6.7;;;;;;;7.7;55.4;97620;;;;
2023/03/06 11:44:29;;;;;;;10;6.7;;;;;;;7.8;53;97600;;;;
2023/03/06 11:55:29;;;;;;;11;6.6;;;;;;;7.8;53.2;97570;;;;
2023/03/06 12:05:29;;;;;;;11;6.6;;;;;;;7.8;54.6;97560;;;;
2023/03/06 12:15:29;;;;;;;11;6.6;;;;;;;7.8;54.5;97550;;;;
2023/03/06 12:26:29;;;;;;;9.9;6.7;;;;;;;8;54.1;97540;;;;
2023/03/06 12:36:29;;;;;;;9.9;6.7;;;;;;;7.4;53.6;97550;;;;
2023/03/06 12:47:29;;;;;;;9.9;6.7;;;;;;;7.7;53.6;97540;;;;
2023/03/06 12:58:29;;;;;;;10;6.7;;;;;;;7.5;54.6;97530;;;;
2023/03/06 13:08:29;;;;;;;10;6.7;;;;;;;7;54.5;97540;;;;
2023/03/06 13:18:29;;;;;;;10;6.7;;;;;;;7.2;55.1;97520;;;;
2023/03/06 13:29:29;;;;;;;9.1;6.1;;;;;;;7.4;54.2;97510;;;;
2023/03/06 13:40:29;;;;;;;9.1;6.1;;;;;;;7.7;55.2;97490;;;;
2023/03/06 13:50:29;;;;;;;9.1;6.1;;;;;;;7.5;54.6;97490;;;;
2023/03/06 14:00:29;;;;;;;12.4;7.3;;;;;;;6.4;61.3;97510;;;;
2023/03/06 14:11:29;;;;;;;12.4;7.3;;;;;;;5.7;64.9;97510;;;;
2023/03/06 14:21:29;;;;;;;12.4;7.3;;;;;;;5.4;66.4;97520;;;;
2023/03/06 14:32:29;;;;;;;9;5.3;;;;;;;5.4;65.9;97530;;;;
2023/03/06 14:42:29;;;;;;;9;5.3;;;;;;;5.1;65.2;97520;;;;
2023/03/06 14:53:29;;;;;;;7.3;4.3;;;;;;;5.1;66;97520;;;;
2023/03/06 15:04:29;;;;;;;7.3;4.3;;;;;;;5.1;66;97510;;;;
2023/03/06 15:14:29;;;;;;;7.3;4.3;;;;;;;5;65.6;97500;;;;
2023/03/06 15:24:29;;;;;;;8.5;5;;;;;;;5;65.8;97500;;;;
2023/03/06 15:35:30;;;;;;;8.5;5;;;;;;;5;65.2;97490;;;;
2023/03/06 15:46:29;;;;;;;8.5;5;;;;;;;5;64.7;97500;;;;
2023/03/06 15:56:29;;;;;;;8;4.8;;;;;;;4.8;63.8;97500;;;;
2023/03/06 16:07:29;;;;;;;8;4.8;;;;;;;4.6;59.1;97490;;;;
2023/03/06 16:17:29;;;;;;;8;4.8;;;;;;;4.4;59.5;97500;;;;
2023/03/06 16:27:29;;;;;;;6.4;3.9;;;;;;;4.2;59.6;97490;;;;
2023/03/06 16:38:29;;;;;;;6.4;3.9;;;;;;;4;60;97500;;;;
2023/03/06 16:48:29;;;;;;;6.4;3.9;;;;;;;3.9;61.4;97510;;;;
2023/03/06 16:59:30;;;;;;;9.3;5.7;;;;;;;3.9;62.5;97520;;;;
2023/03/06 17:10:29;;;;;;;9.3;5.7;;;;;;;3.8;64.9;97520;;;;
2023/03/06 17:21:29;;;;;;;12.7;5.8;;;;;;;3.6;68.5;97520;;;;
2023/03/06 17:31:29;;;;;;;12.7;5.8;;;;;;;3.2;70.6;97530;;;;
2023/03/06 17:42:29;;;;;;;12.7;5.8;;;;;;;3;71.7;97530;;;;
2023/03/06 17:52:29;;;;;;;17.3;7.7;;;;;;;2.8;71.7;97530;;;;
2023/03/06 18:03:29;;;;;;;17.3;7.7;;;;;;;2.6;72.3;97530;;;;
2023/03/06 18:13:29;;;;;;;17.3;7.7;;;;;;;2.3;73.3;97520;;;;
2023/03/06 18:23:29;;;;;;;14.1;7.7;;;;;;;2.1;73.2;97520;;;;
2023/03/06 18:33:29;;;;;;;14.1;7.7;;;;;;;2;73.7;97520;;;;
2023/03/06 18:44:29;;;;;;;14.1;7.7;;;;;;;1.9;73.8;97520;;;;
2023/03/06 18:55:29;;;;;;;16.9;9.4;;;;;;;1.9;74.4;97520;;;;
2023/03/06 19:06:29;;;;;;;16.9;9.4;;;;;;;1.9;75.4;97520;;;;
2023/03/06 19:17:30;;;;;;;16.9;9.4;;;;;;;1.9;75.9;97510;;;;
2023/03/06 19:27:30;;;;;;;16.7;9.8;;;;;;;2;75.9;97510;;;;
2023/03/06 19:37:29;;;;;;;16.7;9.8;;;;;;;2;75.6;97510;;;;
2023/03/06 19:48:29;;;;;;;16.7;9.8;;;;;;;1.9;75.6;97510;;;;
2023/03/06 19:58:29;;;;;;;21.7;11.3;;;;;;;1.8;75.8;97500;;;;
2023/03/06 20:08:29;;;;;;;21.7;11.3;;;;;;;1.7;76;97510;;;;
2023/03/06 20:19:29;;;;;;;21.7;11.3;;;;;;;1.7;75.5;97510;;;;
2023/03/06 20:30:29;;;;;;;18;10.3;;;;;;;1.6;75.2;97520;;;;
2023/03/06 20:40:29;;;;;;;18;10.3;;;;;;;1.5;74.9;97520;;;;
2023/03/06 20:50:29;;;;;;;18;10.3;;;;;;;1.3;75;97520;;;;
2023/03/06 21:00:29;;;;;;;20.8;12;;;;;;;1.1;75.3;97520;;;;
2023/03/06 21:11:29;;;;;;;20.8;12;;;;;;;0.9;76;97520;;;;
2023/03/06 21:22:29;;;;;;;22.8;13.9;;;;;;;0.8;76.4;97510;;;;
2023/03/06 21:32:29;;;;;;;22.8;13.9;;;;;;;0.7;77.2;97510;;;;
2023/03/06 21:43:29;;;;;;;22.8;13.9;;;;;;;0.6;78.4;97510;;;;
2023/03/06 21:53:29;;;;;;;23.9;13;;;;;;;0.7;78.4;97500;;;;
2023/03/06 22:03:29;;;;;;;23.9;13;;;;;;;0.6;78.2;97500;;;;
2023/03/06 22:14:29;;;;;;;23.9;13;;;;;;;0.6;78.2;97480;;;;
2023/03/06 22:24:30;;;;;;;19.2;12;;;;;;;0.6;78.3;97480;;;;
2023/03/06 22:35:29;;;;;;;19.2;12;;;;;;;0.5;78.5;97470;;;;
2023/03/06 22:45:30;;;;;;;19.2;12;;;;;;;0.5;78.7;97480;;;;
2023/03/06 22:56:29;;;;;;;16.9;9.2;;;;;;;0.5;78.7;97480;;;;
2023/03/06 23:07:29;;;;;;;16.9;9.2;;;;;;;0.7;78.8;97480;;;;
2023/03/06 23:18:29;;;;;;;16.9;9.2;;;;;;;1;78.6;97480;;;;
2023/03/06 23:28:29;;;;;;;20;10.5;;;;;;;1;77.8;97480;;;;
2023/03/06 23:39:30;;;;;;;20;10.5;;;;;;;0.9;77.5;97490;;;;
2023/03/06 23:49:29;;;;;;;20;10.5;;;;;;;0.9;77.8;97490;;;;
2023/03/06 23:59:29;;;;;;;16.8;8.6;;;;;;;0.9;77.7;97490;;;;
